createdAt,value
2019-02-20T00:01:43.633Z,23.17
2019-02-20T00:04:13.138Z,18.17
2019-02-20T00:06:42.333Z,18.70
2019-02-20T00:09:11.853Z,20.80
2019-02-20T00:11:41.357Z,22.50
2019-02-20T00:14:10.533Z,22.27
2019-02-20T00:16:39.968Z,23.60
2019-02-20T00:19:09.405Z,21.77
2019-02-20T00:21:38.627Z,18.67
2019-02-20T00:24:07.814Z,16.63
2019-02-20T00:26:37.097Z,18.23
2019-02-20T00:29:06.537Z,21.53
2019-02-20T00:31:35.810Z,17.80
2019-02-20T00:34:05.062Z,19.80
2019-02-20T00:36:34.335Z,16.87
2019-02-20T00:39:06.261Z,18.60
2019-02-20T00:41:35.432Z,19.77
2019-02-20T00:44:35.788Z,20.17
2019-02-20T00:47:17.455Z,21.03
2019-02-20T00:49:48.791Z,22.77
2019-02-20T00:52:37.144Z,21.47
2019-02-20T00:55:07.046Z,21.13
2019-02-20T00:57:36.569Z,20.70
2019-02-20T01:00:06.445Z,22.00
2019-02-20T01:02:35.649Z,21.53
2019-02-20T01:05:05.054Z,20.70
2019-02-20T01:07:34.389Z,20.70
2019-02-20T01:10:03.961Z,22.07
2019-02-20T01:12:33.464Z,21.03
2019-02-20T01:15:02.635Z,23.87
2019-02-20T01:17:32.334Z,25.60
2019-02-20T01:20:01.509Z,23.50
2019-02-20T01:22:30.693Z,23.43
2019-02-20T01:25:00.462Z,23.93
2019-02-20T01:27:29.894Z,22.67
2019-02-20T01:29:59.160Z,25.60
2019-02-20T01:32:28.645Z,21.43
2019-02-20T01:34:57.955Z,25.93
2019-02-20T01:37:27.138Z,27.60
2019-02-20T01:39:56.645Z,25.90
2019-02-20T01:42:26.144Z,23.50
2019-02-20T01:44:57.067Z,24.13
2019-02-20T01:47:26.721Z,28.10
2019-02-20T01:49:55.908Z,24.97
2019-02-20T01:52:25.123Z,23.67
2019-02-20T01:54:54.975Z,23.70
2019-02-20T01:57:24.507Z,19.63
2019-02-20T01:59:53.749Z,21.87
2019-02-20T02:02:22.900Z,19.30
2019-02-20T02:04:52.098Z,18.90
2019-02-20T02:07:21.286Z,19.37
2019-02-20T02:09:50.494Z,19.57
2019-02-20T02:12:20.170Z,22.97
2019-02-20T02:14:49.369Z,20.17
2019-02-20T02:17:18.648Z,23.47
2019-02-20T02:19:47.944Z,20.73
2019-02-20T02:22:17.934Z,21.20
2019-02-20T02:24:47.298Z,19.33
2019-02-20T02:27:16.653Z,22.47
2019-02-20T02:29:45.837Z,23.00
2019-02-20T02:32:15.418Z,20.77
2019-02-20T02:34:45.045Z,22.33
2019-02-20T02:37:14.274Z,27.40
2019-02-20T02:39:43.783Z,23.07
2019-02-20T02:42:13.065Z,22.67
2019-02-20T02:44:42.624Z,22.57
2019-02-20T02:47:11.992Z,22.00
2019-02-20T02:49:41.239Z,23.33
2019-02-20T02:52:10.491Z,20.07
2019-02-20T02:54:39.767Z,22.27
2019-02-20T02:57:08.993Z,23.80
2019-02-20T02:59:38.485Z,20.17
2019-02-20T03:02:07.849Z,21.90
2019-02-20T03:04:37.106Z,22.63
2019-02-20T03:07:06.408Z,22.50
2019-02-20T03:09:35.860Z,22.23
2019-02-20T03:12:05.106Z,23.50
2019-02-20T03:14:34.283Z,23.03
2019-02-20T03:17:03.485Z,24.30
2019-02-20T03:19:32.688Z,22.87
2019-02-20T03:22:01.858Z,23.53
2019-02-20T03:24:31.075Z,23.77
2019-02-20T03:27:00.370Z,24.47
2019-02-20T03:29:29.630Z,26.30
2019-02-20T03:31:58.971Z,26.00
2019-02-20T03:34:28.425Z,26.00
2019-02-20T03:36:57.938Z,23.93
2019-02-20T03:39:27.304Z,24.07
2019-02-20T03:41:56.584Z,21.90
2019-02-20T03:44:25.906Z,23.07
2019-02-20T03:46:55.431Z,22.67
2019-02-20T03:49:24.720Z,23.60
2019-02-20T03:51:54.289Z,22.83
2019-02-20T03:54:23.482Z,24.63
2019-02-20T03:56:52.813Z,22.37
2019-02-20T03:59:22.492Z,22.90
2019-02-20T04:01:52.317Z,26.63
2019-02-20T04:04:21.612Z,27.47
2019-02-20T04:06:50.881Z,28.53
2019-02-20T04:09:20.362Z,22.73
2019-02-20T04:11:49.623Z,24.43
2019-02-20T04:14:19.225Z,23.73
2019-02-20T04:16:48.437Z,22.27
2019-02-20T04:19:17.983Z,24.57
2019-02-20T04:21:47.449Z,25.63
2019-02-20T04:24:17.046Z,23.73
2019-02-20T04:26:46.309Z,25.87
2019-02-20T04:29:15.453Z,24.63
2019-02-20T04:31:44.677Z,27.03
2019-02-20T04:34:14.087Z,25.53
2019-02-20T04:36:43.539Z,26.53
2019-02-20T04:39:12.853Z,31.63
2019-02-20T04:41:42.354Z,28.60
2019-02-20T04:44:11.585Z,30.77
2019-02-20T04:46:41.412Z,28.47
2019-02-20T04:49:10.925Z,28.80
2019-02-20T04:51:40.183Z,31.83
2019-02-20T04:54:13.235Z,29.50
2019-02-20T04:56:40.467Z,27.60
2019-02-20T04:59:10.060Z,30.03
2019-02-20T05:01:39.312Z,29.87
2019-02-20T05:04:08.825Z,28.80
2019-02-20T05:06:38.001Z,32.23
2019-02-20T05:09:07.330Z,29.93
2019-02-20T05:11:36.905Z,30.67
2019-02-20T05:14:06.121Z,32.50
2019-02-20T05:16:35.769Z,29.90
2019-02-20T05:19:05.221Z,30.97
2019-02-20T05:21:34.369Z,33.90
2019-02-20T05:24:03.892Z,31.37
2019-02-20T05:26:33.038Z,30.57
2019-02-20T05:29:02.280Z,34.93
2019-02-20T05:31:31.557Z,30.77
2019-02-20T05:34:00.960Z,35.07
2019-02-20T05:36:30.350Z,31.60
2019-02-20T05:38:59.638Z,33.17
2019-02-20T05:41:29.481Z,30.53
2019-02-20T05:43:59.297Z,29.93
2019-02-20T05:46:28.534Z,32.00
2019-02-20T05:48:57.737Z,31.23
2019-02-20T05:51:27.293Z,29.90
2019-02-20T05:53:56.606Z,29.30
2019-02-20T05:56:26.211Z,30.93
2019-02-20T05:58:55.447Z,29.27
2019-02-20T06:01:24.781Z,27.97
2019-02-20T06:03:54.023Z,26.17
2019-02-20T06:06:23.296Z,23.60
2019-02-20T06:08:52.466Z,25.20
2019-02-20T06:11:22.100Z,26.63
2019-02-20T06:13:51.273Z,24.20
2019-02-20T06:16:20.500Z,25.40
2019-02-20T06:18:50.599Z,22.63
2019-02-20T06:21:19.767Z,23.63
2019-02-20T06:23:48.942Z,25.70
2019-02-20T06:26:18.514Z,28.47
2019-02-20T06:28:48.172Z,28.60
2019-02-20T06:31:17.389Z,25.10
2019-02-20T06:33:46.958Z,23.30
2019-02-20T06:36:16.110Z,25.50
2019-02-20T06:38:45.368Z,23.13
2019-02-20T06:41:14.826Z,20.63
2019-02-20T06:43:44.026Z,21.80
2019-02-20T06:46:13.229Z,21.70
2019-02-20T06:48:42.595Z,23.87
2019-02-20T06:51:11.871Z,24.10
2019-02-20T06:53:41.277Z,22.80
2019-02-20T06:56:10.602Z,20.60
2019-02-20T06:58:39.809Z,21.07
2019-02-20T07:01:09.271Z,28.97
2019-02-20T07:03:38.868Z,24.30
2019-02-20T07:06:47.164Z,23.70
2019-02-20T07:09:49.273Z,21.77
2019-02-20T07:12:43.174Z,23.10
2019-02-20T07:15:49.140Z,21.70
2019-02-20T07:18:49.207Z,20.70
2019-02-20T07:22:05.755Z,24.33
2019-02-20T07:25:20.905Z,19.50
2019-02-20T07:28:43.212Z,22.37
2019-02-20T07:31:12.386Z,19.87
2019-02-20T07:33:41.866Z,20.47
2019-02-20T07:36:11.137Z,40.07
2019-02-20T07:38:40.339Z,20.57
2019-02-20T07:41:09.828Z,23.13
2019-02-20T07:43:39.206Z,21.37
2019-02-20T07:46:08.839Z,26.33
2019-02-20T07:48:38.642Z,35.63
2019-02-20T07:51:07.965Z,55.03
2019-02-20T07:53:37.172Z,44.27
2019-02-20T07:56:06.761Z,39.60
2019-02-20T07:58:36.187Z,28.40
2019-02-20T08:01:05.684Z,30.43
2019-02-20T08:03:35.322Z,37.77
2019-02-20T08:06:04.467Z,28.67
2019-02-20T08:08:33.783Z,31.40
2019-02-20T08:11:03.090Z,19.77
2019-02-20T08:13:39.160Z,19.93
2019-02-20T08:16:03.433Z,17.33
2019-02-20T08:18:32.871Z,30.13
2019-02-20T08:21:02.448Z,23.13
2019-02-20T08:23:31.798Z,31.60
2019-02-20T08:26:01.218Z,23.30
2019-02-20T08:28:31.173Z,19.00
2019-02-20T08:31:00.454Z,19.53
2019-02-20T08:33:29.800Z,20.47
2019-02-20T08:35:59.144Z,21.97
2019-02-20T08:38:28.767Z,20.93
2019-02-20T08:40:58.381Z,20.90
2019-02-20T08:43:27.674Z,21.47
2019-02-20T08:45:57.390Z,19.27
2019-02-20T08:48:27.283Z,21.93
2019-02-20T08:50:56.718Z,19.50
2019-02-20T08:53:26.177Z,17.67
2019-02-20T08:55:55.375Z,15.60
2019-02-20T08:58:24.934Z,23.97
2019-02-20T09:00:54.343Z,20.20
2019-02-20T09:03:23.697Z,20.93
2019-02-20T09:05:52.951Z,18.77
2019-02-20T09:08:22.599Z,21.10
2019-02-20T09:10:52.150Z,17.23
2019-02-20T09:13:21.626Z,20.53
2019-02-20T09:15:52.321Z,19.13
2019-02-20T09:18:21.621Z,20.03
2019-02-20T09:20:50.853Z,19.47
2019-02-20T09:23:20.345Z,22.83
2019-02-20T09:25:49.765Z,19.53
2019-02-20T09:28:19.006Z,19.33
2019-02-20T09:30:48.533Z,18.63
2019-02-20T09:33:17.849Z,19.73
2019-02-20T09:35:47.129Z,21.03
2019-02-20T09:38:16.472Z,23.63
2019-02-20T09:40:46.054Z,21.73
2019-02-20T09:43:15.468Z,21.47
2019-02-20T09:45:44.801Z,21.33
2019-02-20T09:48:14.498Z,23.83
2019-02-20T09:50:43.759Z,26.80
2019-02-20T09:53:13.218Z,20.67
2019-02-20T09:55:51.225Z,21.57
2019-02-20T09:58:14.029Z,17.63
2019-02-20T10:00:43.309Z,16.37
2019-02-20T10:03:13.246Z,18.53
2019-02-20T10:05:42.766Z,17.43
2019-02-20T10:08:11.930Z,21.17
2019-02-20T10:10:41.094Z,19.77
2019-02-20T10:13:11.623Z,17.93
2019-02-20T10:15:41.089Z,18.53
2019-02-20T10:18:12.280Z,16.20
2019-02-20T10:20:41.734Z,18.00
2019-02-20T10:23:11.034Z,15.83
2019-02-20T10:25:40.275Z,17.53
2019-02-20T10:28:10.256Z,17.93
2019-02-20T10:30:39.447Z,17.33
2019-02-20T10:33:08.701Z,15.57
2019-02-20T10:35:38.142Z,13.67
2019-02-20T10:38:07.770Z,15.53
2019-02-20T10:40:36.950Z,12.33
2019-02-20T10:43:06.215Z,13.40
2019-02-20T10:45:35.461Z,14.20
2019-02-20T10:48:05.105Z,13.93
2019-02-20T10:50:34.445Z,15.00
2019-02-20T10:53:03.725Z,13.30
2019-02-20T10:55:32.930Z,12.70
2019-02-20T10:58:02.447Z,14.17
2019-02-20T11:00:33.288Z,11.73
2019-02-20T11:03:02.724Z,13.70
2019-02-20T11:05:33.430Z,13.00
2019-02-20T11:08:02.750Z,14.40
2019-02-20T11:10:32.137Z,11.57
2019-02-20T11:13:01.370Z,15.13
2019-02-20T11:15:30.635Z,15.10
2019-02-20T11:18:00.394Z,15.07
2019-02-20T11:20:29.797Z,16.33
2019-02-20T11:22:59.076Z,15.00
2019-02-20T11:25:28.707Z,12.83
2019-02-20T11:27:58.001Z,16.80
2019-02-20T11:30:27.417Z,13.63
2019-02-20T11:32:56.904Z,15.37
2019-02-20T11:35:26.789Z,14.13
2019-02-20T11:37:56.072Z,12.50
2019-02-20T11:40:25.662Z,13.70
2019-02-20T11:42:54.831Z,16.67
2019-02-20T11:45:24.321Z,12.27
2019-02-20T11:47:53.553Z,15.77
2019-02-20T11:50:22.842Z,14.67
2019-02-20T11:52:52.147Z,15.53
2019-02-20T11:55:21.732Z,13.07
2019-02-20T11:57:51.466Z,13.67
2019-02-20T12:00:20.795Z,25.77
2019-02-20T12:02:49.977Z,15.93
2019-02-20T12:05:19.743Z,12.90
2019-02-20T12:07:48.967Z,14.90
2019-02-20T12:10:18.418Z,14.67
2019-02-20T12:12:48.283Z,14.83
2019-02-20T12:15:17.880Z,11.80
2019-02-20T12:17:47.634Z,14.97
2019-02-20T12:20:17.398Z,10.33
2019-02-20T12:22:46.737Z,10.33
2019-02-20T12:25:15.978Z,14.30
2019-02-20T12:27:45.592Z,9.83
2019-02-20T12:30:14.868Z,13.03
2019-02-20T12:32:44.692Z,7.80
2019-02-20T12:35:13.940Z,11.03
2019-02-20T12:37:43.507Z,9.47
2019-02-20T12:40:13.404Z,10.20
2019-02-20T12:42:42.713Z,9.10
2019-02-20T12:45:12.256Z,13.53
2019-02-20T12:47:41.773Z,10.58
2019-02-20T12:50:11.338Z,14.95
2019-02-20T12:52:40.569Z,8.63
2019-02-20T12:55:09.844Z,11.53
2019-02-20T12:57:39.102Z,8.18
2019-02-20T13:00:08.574Z,7.00
2019-02-20T13:02:37.862Z,15.68
2019-02-20T13:05:07.585Z,9.05
2019-02-20T13:07:36.942Z,7.70
2019-02-20T13:10:06.314Z,7.50
2019-02-20T13:12:35.683Z,6.55
2019-02-20T13:15:04.984Z,6.85
2019-02-20T13:17:34.183Z,8.85
2019-02-20T13:20:03.679Z,9.98
2019-02-20T13:22:35.092Z,7.17
2019-02-20T13:25:04.497Z,8.13
2019-02-20T13:27:33.719Z,8.18
2019-02-20T13:30:03.643Z,5.80
2019-02-20T13:32:32.961Z,7.08
2019-02-20T13:35:02.199Z,7.17
2019-02-20T13:37:31.451Z,10.32
2019-02-20T13:40:00.773Z,9.70
2019-02-20T13:42:29.898Z,8.60
2019-02-20T13:44:59.247Z,8.28
2019-02-20T13:47:28.457Z,7.47
2019-02-20T13:49:58.325Z,8.20
2019-02-20T13:52:27.740Z,12.30
2019-02-20T13:54:57.030Z,9.58
2019-02-20T13:57:26.355Z,9.00
2019-02-20T13:59:55.616Z,10.13
2019-02-20T14:02:25.002Z,11.28
2019-02-20T14:04:54.641Z,10.60
2019-02-20T14:07:23.876Z,9.13
2019-02-20T14:09:53.116Z,10.75
2019-02-20T14:12:22.442Z,6.55
2019-02-20T14:14:51.720Z,8.68
2019-02-20T14:17:26.668Z,10.43
2019-02-20T14:19:51.903Z,17.27
2019-02-20T14:22:21.163Z,10.13
2019-02-20T14:24:50.490Z,8.50
2019-02-20T14:27:19.928Z,7.30
2019-02-20T14:29:49.322Z,10.70
2019-02-20T14:32:18.780Z,10.28
2019-02-20T14:34:48.352Z,11.05
2019-02-20T14:37:18.095Z,11.88
2019-02-20T14:39:47.438Z,9.83
2019-02-20T14:42:17.119Z,11.90
2019-02-20T14:44:47.013Z,10.28
2019-02-20T14:47:16.290Z,12.50
2019-02-20T14:49:45.517Z,11.08
2019-02-20T14:52:15.049Z,9.70
2019-02-20T14:54:44.309Z,9.37
2019-02-20T14:57:19.662Z,11.80
2019-02-20T14:59:44.889Z,9.10
2019-02-20T15:02:14.272Z,10.77
2019-02-20T15:04:44.649Z,10.67
2019-02-20T15:07:14.050Z,11.37
2019-02-20T15:09:43.278Z,11.37
2019-02-20T15:12:12.877Z,11.90
2019-02-20T15:14:42.193Z,13.10
2019-02-20T15:17:11.514Z,12.07
2019-02-20T15:19:40.777Z,11.67
2019-02-20T15:22:10.327Z,14.90
2019-02-20T15:24:39.910Z,13.40
2019-02-20T15:27:09.378Z,10.63
2019-02-20T15:29:38.662Z,11.87
2019-02-20T15:32:07.902Z,15.17
2019-02-20T15:34:37.189Z,19.17
2019-02-20T15:37:06.333Z,17.47
2019-02-20T15:39:35.695Z,12.47
2019-02-20T15:42:05.399Z,14.60
2019-02-20T15:44:34.658Z,11.40
2019-02-20T15:47:03.977Z,10.10
2019-02-20T15:49:33.339Z,13.27
2019-02-20T15:52:02.565Z,11.57
2019-02-20T15:54:31.845Z,10.60
2019-02-20T15:57:01.481Z,15.47
2019-02-20T15:59:31.318Z,11.70
2019-02-20T16:02:00.914Z,10.57
2019-02-20T16:04:30.262Z,11.93
2019-02-20T16:06:59.512Z,9.73
2019-02-20T16:09:28.818Z,10.23
2019-02-20T16:11:58.202Z,14.20
2019-02-20T16:14:28.082Z,11.07
2019-02-20T16:16:57.332Z,10.13
2019-02-20T16:19:26.694Z,10.53
2019-02-20T16:21:56.245Z,9.77
2019-02-20T16:24:25.501Z,10.07
2019-02-20T16:26:54.953Z,10.63
2019-02-20T16:29:24.502Z,10.23
2019-02-20T16:31:53.805Z,11.27
2019-02-20T16:34:23.101Z,11.13
2019-02-20T16:36:52.447Z,11.63
2019-02-20T16:39:21.957Z,9.63
2019-02-20T16:41:51.161Z,10.43
2019-02-20T16:44:20.484Z,14.93
2019-02-20T16:46:49.714Z,11.80
2019-02-20T16:49:18.984Z,12.87
2019-02-20T16:51:48.545Z,10.90
2019-02-20T16:54:17.903Z,22.90
2019-02-20T16:56:47.253Z,23.47
2019-02-20T16:59:16.552Z,16.47
2019-02-20T17:01:46.487Z,15.47
2019-02-20T17:04:16.053Z,12.23
2019-02-20T17:06:45.444Z,11.07
2019-02-20T17:09:14.758Z,12.30
2019-02-20T17:11:44.232Z,12.17
2019-02-20T17:14:13.540Z,9.53
2019-02-20T17:16:42.993Z,10.13
2019-02-20T17:19:12.718Z,11.40
2019-02-20T17:21:42.024Z,11.97
2019-02-20T17:24:11.368Z,12.90
2019-02-20T17:26:40.613Z,11.40
2019-02-20T17:29:10.125Z,12.53
2019-02-20T17:31:39.578Z,11.50
2019-02-20T17:34:08.871Z,9.37
2019-02-20T17:36:38.287Z,11.37
2019-02-20T17:39:08.128Z,10.80
2019-02-20T17:41:37.446Z,13.23
2019-02-20T17:44:06.980Z,13.50
2019-02-20T17:46:36.500Z,13.83
2019-02-20T17:49:06.145Z,12.87
2019-02-20T17:51:35.527Z,11.90
2019-02-20T17:54:04.849Z,10.47
2019-02-20T17:56:33.985Z,14.93
2019-02-20T17:59:03.586Z,12.97
2019-02-20T18:01:32.832Z,10.23
2019-02-20T18:04:02.139Z,10.03
2019-02-20T18:06:31.354Z,13.40
2019-02-20T18:09:01.421Z,13.73
2019-02-20T18:11:30.573Z,12.17
2019-02-20T18:13:59.840Z,15.83
2019-02-20T18:16:29.114Z,10.80
2019-02-20T18:18:58.562Z,12.27
2019-02-20T18:21:27.883Z,11.13
2019-02-20T18:23:57.373Z,10.07
2019-02-20T18:26:27.404Z,9.73
2019-02-20T18:28:57.018Z,12.30
2019-02-20T18:31:26.188Z,15.13
2019-02-20T18:33:55.799Z,13.40
2019-02-20T18:36:25.354Z,12.20
2019-02-20T18:38:55.055Z,13.40
2019-02-20T18:41:24.426Z,11.53
2019-02-20T18:43:54.418Z,12.40
2019-02-20T18:46:23.692Z,12.47
2019-02-20T18:48:53.598Z,11.43
2019-02-20T18:51:23.593Z,12.30
2019-02-20T18:53:52.869Z,9.53
2019-02-20T18:56:22.843Z,11.17
2019-02-20T18:58:52.605Z,11.77
2019-02-20T19:01:21.785Z,11.60
2019-02-20T19:03:51.101Z,10.93
2019-02-20T19:06:20.706Z,10.77
2019-02-20T19:08:56.986Z,9.53
2019-02-20T19:11:53.746Z,13.03
2019-02-20T19:14:58.394Z,9.07
2019-02-20T19:18:01.999Z,12.87
2019-02-20T19:20:57.775Z,11.73
2019-02-20T19:23:57.298Z,13.73
2019-02-20T19:26:51.659Z,11.10
2019-02-20T19:30:09.775Z,12.90
2019-02-20T19:33:31.050Z,14.53
2019-02-20T19:36:37.694Z,14.20
2019-02-20T19:39:32.685Z,12.67
2019-02-20T19:42:37.094Z,12.33
2019-02-20T19:45:49.476Z,12.87
2019-02-20T19:49:15.428Z,12.83
2019-02-20T19:52:37.913Z,9.07
2019-02-20T19:55:25.315Z,12.67
2019-02-20T19:58:33.079Z,11.53
2019-02-20T20:01:32.717Z,12.87
2019-02-20T20:04:10.825Z,13.60
2019-02-20T20:07:09.913Z,10.57
2019-02-20T20:10:04.005Z,11.00
2019-02-20T20:12:47.873Z,10.70
2019-02-20T20:15:45.319Z,11.00
2019-02-20T20:18:40.832Z,10.77
2019-02-20T20:21:51.121Z,15.10
2019-02-20T20:24:49.343Z,10.77
2019-02-20T20:27:43.427Z,11.27
2019-02-20T20:30:41.285Z,9.73
2019-02-20T20:34:09.588Z,15.90
2019-02-20T20:37:23.751Z,13.43
2019-02-20T20:40:14.293Z,13.00
2019-02-20T20:43:16.762Z,15.27
2019-02-20T20:46:15.187Z,13.73
2019-02-20T20:49:09.860Z,16.03
2019-02-20T20:52:18.954Z,16.90
2019-02-20T20:55:30.588Z,17.23
2019-02-20T20:58:41.155Z,16.20
2019-02-20T21:01:49.061Z,18.83
2019-02-20T21:04:50.780Z,16.53
2019-02-20T21:07:51.093Z,16.23
2019-02-20T21:11:04.365Z,22.07
2019-02-20T21:14:04.632Z,20.53
2019-02-20T21:17:03.779Z,20.73
2019-02-20T21:20:02.910Z,18.70
2019-02-20T21:23:24.761Z,17.60
2019-02-20T21:26:43.674Z,15.53
2019-02-20T21:29:28.532Z,15.17
2019-02-20T21:32:35.707Z,16.93
2019-02-20T21:35:20.159Z,17.77
2019-02-20T21:38:39.473Z,15.80
2019-02-20T21:41:39.437Z,15.30
2019-02-20T21:44:45.526Z,16.43
2019-02-20T21:47:43.748Z,18.30
2019-02-20T21:51:03.982Z,16.63
2019-02-20T21:54:08.799Z,18.50
2019-02-20T21:56:52.406Z,22.10
2019-02-20T21:59:54.629Z,17.50
2019-02-20T22:02:52.457Z,17.37
2019-02-20T22:05:38.957Z,16.67
2019-02-20T22:09:12.329Z,18.67
2019-02-20T22:12:21.285Z,17.80
2019-02-20T22:15:18.540Z,18.70
2019-02-20T22:18:15.853Z,20.33
2019-02-20T22:21:33.551Z,21.23
2019-02-20T22:25:16.426Z,23.90
2019-02-20T22:28:14.869Z,17.50
2019-02-20T22:30:58.132Z,21.23
2019-02-20T22:33:45.906Z,18.80
2019-02-20T22:36:48.546Z,21.73
2019-02-20T22:39:39.257Z,17.47
2019-02-20T22:43:13.845Z,20.33
2019-02-20T22:46:18.517Z,15.80
2019-02-20T22:49:40.834Z,13.30
2019-02-20T22:52:50.290Z,17.00
2019-02-20T22:56:02.259Z,19.87
2019-02-20T22:58:58.770Z,19.13
2019-02-20T23:02:24.283Z,30.70
2019-02-20T23:05:37.054Z,19.00
2019-02-20T23:08:31.618Z,16.13
2019-02-20T23:11:41.163Z,20.80
2019-02-20T23:14:59.481Z,18.97
2019-02-20T23:17:28.781Z,21.13
2019-02-20T23:19:58.576Z,19.30
2019-02-20T23:22:27.937Z,20.73
2019-02-20T23:24:57.130Z,20.80
2019-02-20T23:27:26.681Z,24.37
2019-02-20T23:29:55.927Z,23.27
2019-02-20T23:32:25.696Z,24.77
2019-02-20T23:34:54.941Z,25.20
2019-02-20T23:37:24.513Z,25.23
2019-02-20T23:39:53.749Z,24.60
2019-02-20T23:42:23.327Z,27.73
2019-02-20T23:44:52.542Z,26.40
2019-02-20T23:47:21.817Z,25.37
2019-02-20T23:49:51.312Z,24.93
2019-02-20T23:52:20.949Z,24.10
2019-02-20T23:54:50.116Z,24.93
2019-02-20T23:57:19.516Z,22.43
2019-02-20T23:59:48.953Z,21.87
